createdAt,value
2023-02-18T00:01:08.032Z,8.20
2023-02-18T00:03:34.745Z,8.30
2023-02-18T00:06:01.477Z,8.10
2023-02-18T00:08:28.113Z,8.10
2023-02-18T00:10:54.759Z,8.10
2023-02-18T00:13:21.368Z,8.20
2023-02-18T00:15:48.049Z,8.30
2023-02-18T00:18:14.783Z,8.30
2023-02-18T00:20:41.481Z,8.20
2023-02-18T00:23:08.108Z,8.20
2023-02-18T00:25:34.782Z,8.10
2023-02-18T00:28:01.428Z,8.00
2023-02-18T00:30:28.138Z,7.90
2023-02-18T00:32:54.867Z,7.50
2023-02-18T00:35:21.489Z,7.50
2023-02-18T00:37:48.158Z,7.60
2023-02-18T00:40:14.799Z,7.90
2023-02-18T00:42:41.475Z,8.00
2023-02-18T00:45:08.117Z,7.90
2023-02-18T00:47:34.738Z,8.10
2023-02-18T00:50:01.404Z,8.30
2023-02-18T00:52:28.081Z,8.30
2023-02-18T00:54:54.735Z,8.20
2023-02-18T00:57:21.441Z,8.30
2023-02-18T00:59:48.077Z,8.30
2023-02-18T01:02:14.703Z,8.40
2023-02-18T01:04:41.458Z,8.40
2023-02-18T01:07:08.133Z,8.40
2023-02-18T01:09:34.764Z,8.40
2023-02-18T01:12:01.404Z,8.30
2023-02-18T01:14:28.116Z,8.00
2023-02-18T01:16:54.778Z,8.10
2023-02-18T01:19:21.503Z,8.10
2023-02-18T01:21:48.221Z,8.10
2023-02-18T01:24:14.925Z,8.20
2023-02-18T01:26:41.594Z,7.80
2023-02-18T01:29:08.239Z,7.80
2023-02-18T01:31:35.027Z,7.90
2023-02-18T01:34:01.705Z,8.00
2023-02-18T01:36:28.401Z,8.10
2023-02-18T01:38:55.057Z,7.60
2023-02-18T01:41:21.692Z,7.70
2023-02-18T01:43:48.385Z,7.90
2023-02-18T01:46:15.099Z,7.90
2023-02-18T01:48:41.770Z,8.10
2023-02-18T01:51:08.381Z,8.20
2023-02-18T01:53:35.017Z,8.10
2023-02-18T01:56:01.676Z,8.20
2023-02-18T01:58:28.354Z,8.00
2023-02-18T02:00:55.075Z,8.10
2023-02-18T02:03:21.766Z,8.00
2023-02-18T02:05:48.423Z,8.10
2023-02-18T02:08:15.064Z,8.20
2023-02-18T02:10:41.655Z,8.30
2023-02-18T02:13:08.282Z,8.20
2023-02-18T02:15:34.916Z,8.20
2023-02-18T02:18:01.603Z,8.00
2023-02-18T02:20:28.239Z,7.60
2023-02-18T02:22:54.969Z,7.90
2023-02-18T02:25:21.707Z,7.30
2023-02-18T02:27:48.313Z,7.00
2023-02-18T02:30:15.022Z,7.40
2023-02-18T02:32:41.650Z,7.70
2023-02-18T02:35:08.333Z,7.80
2023-02-18T02:37:35.054Z,7.50
2023-02-18T02:40:01.658Z,7.70
2023-02-18T02:42:28.345Z,7.90
2023-02-18T02:44:54.975Z,7.10
2023-02-18T02:47:21.654Z,7.30
2023-02-18T02:49:48.302Z,7.70
2023-02-18T02:52:14.913Z,7.80
2023-02-18T02:54:41.612Z,7.90
2023-02-18T02:57:08.238Z,7.50
2023-02-18T02:59:34.853Z,7.60
2023-02-18T03:02:01.547Z,7.60
2023-02-18T03:04:28.198Z,7.70
2023-02-18T03:06:54.869Z,7.30
2023-02-18T03:09:21.489Z,7.40
2023-02-18T03:11:48.234Z,7.40
2023-02-18T03:14:14.915Z,7.30
2023-02-18T03:16:41.668Z,7.20
2023-02-18T03:19:08.342Z,7.00
2023-02-18T03:21:34.977Z,7.20
2023-02-18T03:24:01.591Z,7.50
2023-02-18T03:26:28.212Z,7.50
2023-02-18T03:28:54.810Z,7.60
2023-02-18T03:31:21.610Z,7.80
2023-02-18T03:33:48.312Z,7.40
2023-02-18T03:36:15.019Z,7.30
2023-02-18T03:38:41.852Z,7.50
2023-02-18T03:41:08.517Z,7.70
2023-02-18T03:43:35.155Z,7.90
2023-02-18T03:46:01.809Z,7.90
2023-02-18T03:48:28.484Z,7.30
2023-02-18T03:50:55.130Z,7.50
2023-02-18T03:53:21.763Z,7.80
2023-02-18T03:55:48.389Z,8.10
2023-02-18T03:58:15.040Z,8.10
2023-02-18T04:00:41.747Z,8.20
2023-02-18T04:03:08.415Z,8.30
2023-02-18T04:05:35.197Z,8.20
2023-02-18T04:08:01.812Z,8.00
2023-02-18T04:10:28.452Z,8.30
2023-02-18T04:12:55.078Z,8.00
2023-02-18T04:15:21.697Z,8.10
2023-02-18T04:17:48.353Z,7.80
2023-02-18T04:20:15.027Z,7.70
2023-02-18T04:22:41.726Z,8.10
2023-02-18T04:25:08.350Z,8.30
2023-02-18T04:27:34.976Z,8.50
2023-02-18T04:30:01.819Z,8.60
2023-02-18T04:32:28.484Z,8.70
2023-02-18T04:34:55.367Z,8.80
2023-02-18T04:37:22.052Z,8.80
2023-02-18T04:39:48.687Z,8.80
2023-02-18T04:42:15.375Z,8.90
2023-02-18T04:44:42.063Z,8.80
2023-02-18T04:47:08.709Z,8.80
2023-02-18T04:49:35.388Z,8.80
2023-02-18T04:52:02.029Z,8.10
2023-02-18T04:54:28.670Z,8.00
2023-02-18T04:56:55.302Z,8.30
2023-02-18T04:59:22.014Z,8.40
2023-02-18T05:01:48.687Z,8.40
2023-02-18T05:04:15.481Z,8.00
2023-02-18T05:06:42.207Z,7.90
2023-02-18T05:09:08.849Z,7.70
2023-02-18T05:11:35.534Z,8.00
2023-02-18T05:14:02.229Z,8.10
2023-02-18T05:16:28.863Z,8.40
2023-02-18T05:18:55.614Z,8.50
2023-02-18T05:21:22.315Z,8.10
2023-02-18T05:23:48.928Z,8.20
2023-02-18T05:26:15.540Z,8.30
2023-02-18T05:28:42.198Z,7.90
2023-02-18T05:31:08.982Z,8.10
2023-02-18T05:33:35.650Z,8.10
2023-02-18T05:36:02.248Z,8.00
2023-02-18T05:38:28.860Z,8.30
2023-02-18T05:40:55.476Z,8.30
2023-02-18T05:43:22.157Z,8.50
2023-02-18T05:45:48.839Z,8.40
2023-02-18T05:48:15.543Z,8.50
2023-02-18T05:50:42.192Z,8.60
2023-02-18T05:53:08.905Z,8.50
2023-02-18T05:55:35.538Z,8.40
2023-02-18T05:58:02.225Z,8.30
2023-02-18T06:00:28.921Z,8.30
2023-02-18T06:02:55.690Z,8.30
2023-02-18T06:05:22.353Z,8.30
2023-02-18T06:07:49.011Z,8.00
2023-02-18T06:10:15.646Z,8.10
2023-02-18T06:12:42.321Z,8.20
2023-02-18T06:15:08.960Z,8.40
2023-02-18T06:17:35.578Z,8.40
2023-02-18T06:20:02.241Z,8.30
2023-02-18T06:22:28.876Z,8.30
2023-02-18T06:24:55.505Z,8.20
2023-02-18T06:27:22.226Z,8.00
2023-02-18T06:29:48.838Z,8.10
2023-02-18T06:32:15.643Z,8.20
2023-02-18T06:34:42.394Z,8.10
2023-02-18T06:37:09.056Z,8.10
2023-02-18T06:39:35.689Z,8.10
2023-02-18T06:42:02.375Z,8.30
2023-02-18T06:44:28.984Z,8.40
2023-02-18T06:46:55.701Z,8.10
2023-02-18T06:49:22.349Z,7.30
2023-02-18T06:51:49.041Z,7.60
2023-02-18T06:54:15.762Z,7.60
2023-02-18T06:56:42.431Z,7.70
2023-02-18T06:59:09.111Z,7.10
2023-02-18T07:01:35.806Z,7.30
2023-02-18T07:04:02.524Z,7.70
2023-02-18T07:06:29.214Z,8.10
2023-02-18T07:08:55.960Z,8.20
2023-02-18T07:11:22.592Z,8.10
2023-02-18T07:13:49.240Z,8.30
2023-02-18T07:16:15.903Z,8.40
2023-02-18T07:18:42.516Z,8.10
2023-02-18T07:21:09.138Z,8.30
2023-02-18T07:23:35.757Z,8.40
2023-02-18T07:26:02.383Z,8.10
2023-02-18T07:28:29.013Z,8.40
2023-02-18T07:30:55.805Z,8.40
2023-02-18T07:33:22.503Z,8.10
2023-02-18T07:35:49.114Z,8.50
2023-02-18T07:38:15.725Z,8.80
2023-02-18T07:40:42.406Z,8.40
2023-02-18T07:43:09.124Z,8.30
2023-02-18T07:45:35.807Z,8.50
2023-02-18T07:48:02.440Z,8.80
2023-02-18T07:50:29.176Z,8.50
2023-02-18T07:52:55.904Z,8.60
2023-02-18T07:55:22.558Z,9.10
2023-02-18T07:57:49.239Z,9.40
2023-02-18T08:00:15.895Z,9.60
2023-02-18T08:02:42.539Z,9.70
2023-02-18T08:05:09.159Z,9.80
2023-02-18T08:07:35.779Z,9.80
2023-02-18T08:10:02.467Z,9.90
2023-02-18T08:12:29.178Z,9.90
2023-02-18T08:14:55.851Z,9.90
2023-02-18T08:17:22.477Z,10.10
2023-02-18T08:19:49.286Z,10.20
2023-02-18T08:22:15.963Z,10.30
2023-02-18T08:24:42.614Z,10.40
2023-02-18T08:27:09.243Z,10.70
2023-02-18T08:29:35.913Z,10.60
2023-02-18T08:32:02.542Z,10.90
2023-02-18T08:34:29.232Z,11.10
2023-02-18T08:36:55.929Z,11.00
2023-02-18T08:39:22.655Z,10.70
2023-02-18T08:41:49.322Z,11.00
2023-02-18T08:44:15.962Z,11.10
2023-02-18T08:46:42.710Z,10.90
2023-02-18T08:49:09.391Z,11.30
2023-02-18T08:51:36.090Z,11.50
2023-02-18T08:54:02.735Z,11.70
2023-02-18T08:56:29.485Z,11.70
2023-02-18T08:58:56.155Z,11.80
2023-02-18T09:01:22.929Z,11.90
2023-02-18T09:03:49.679Z,11.90
2023-02-18T09:06:16.396Z,11.70
2023-02-18T09:08:43.118Z,11.80
2023-02-18T09:11:10.135Z,11.90
2023-02-18T09:13:36.995Z,12.00
2023-02-18T09:16:03.727Z,12.10
2023-02-18T09:18:30.423Z,12.20
2023-02-18T09:20:57.084Z,12.10
2023-02-18T09:23:23.728Z,12.20
2023-02-18T09:25:50.369Z,12.50
2023-02-18T09:28:17.016Z,12.70
2023-02-18T09:30:43.678Z,12.90
2023-02-18T09:33:10.266Z,13.20
2023-02-18T09:35:37.446Z,13.40
2023-02-18T09:38:04.077Z,13.60
2023-02-18T09:40:30.703Z,13.80
2023-02-18T09:42:57.439Z,13.60
2023-02-18T09:45:24.124Z,13.90
2023-02-18T09:47:50.776Z,14.10
2023-02-18T09:50:17.402Z,14.30
2023-02-18T09:52:44.040Z,14.20
2023-02-18T09:55:10.758Z,14.50
2023-02-18T09:57:37.404Z,14.50
2023-02-18T10:00:04.086Z,14.80
2023-02-18T10:02:30.751Z,14.90
2023-02-18T10:04:57.411Z,14.80
2023-02-18T10:07:24.181Z,14.60
2023-02-18T10:09:50.831Z,14.80
2023-02-18T10:12:17.515Z,15.00
2023-02-18T10:14:44.139Z,15.00
2023-02-18T10:17:10.811Z,15.40
2023-02-18T10:19:37.429Z,15.70
2023-02-18T10:22:04.116Z,15.90
2023-02-18T10:24:30.765Z,15.80
2023-02-18T10:26:57.380Z,16.00
2023-02-18T10:29:24.020Z,16.00
2023-02-18T10:31:50.836Z,15.90
2023-02-18T10:34:17.595Z,16.20
2023-02-18T10:36:44.283Z,16.40
2023-02-18T10:39:10.919Z,16.40
2023-02-18T10:41:37.545Z,16.80
2023-02-18T10:44:04.223Z,16.90
2023-02-18T10:46:30.922Z,16.90
2023-02-18T10:48:57.692Z,17.10
2023-02-18T10:51:24.334Z,17.40
2023-02-18T10:53:50.977Z,17.60
2023-02-18T10:56:17.837Z,17.30
2023-02-18T10:58:44.552Z,17.40
2023-02-18T11:01:11.412Z,17.80
2023-02-18T11:03:38.145Z,18.00
2023-02-18T11:06:04.852Z,18.10
2023-02-18T11:08:31.555Z,18.10
2023-02-18T11:10:58.164Z,17.90
2023-02-18T11:13:24.802Z,18.20
2023-02-18T11:15:51.446Z,18.30
2023-02-18T11:18:18.129Z,18.20
2023-02-18T11:20:44.828Z,18.30
2023-02-18T11:23:11.468Z,18.30
2023-02-18T11:25:38.084Z,18.20
2023-02-18T11:28:04.707Z,18.40
2023-02-18T11:30:31.406Z,18.30
2023-02-18T11:32:58.070Z,18.30
2023-02-18T11:35:24.682Z,18.60
2023-02-18T11:37:51.386Z,18.40
2023-02-18T11:40:18.036Z,18.50
2023-02-18T11:42:44.726Z,18.50
2023-02-18T11:45:11.342Z,18.30
2023-02-18T11:47:37.987Z,18.50
2023-02-18T11:50:04.662Z,18.50
2023-02-18T11:52:31.327Z,18.50
2023-02-18T11:54:58.026Z,18.70
2023-02-18T11:57:24.673Z,18.90
2023-02-18T11:59:51.331Z,18.30
2023-02-18T12:02:18.032Z,17.90
2023-02-18T12:04:44.763Z,17.80
2023-02-18T12:07:11.418Z,17.80
2023-02-18T12:09:38.188Z,17.80
2023-02-18T12:12:04.844Z,17.90
2023-02-18T12:14:31.587Z,18.00
2023-02-18T12:17:00.129Z,17.70
2023-02-18T12:19:26.830Z,17.80
2023-02-18T12:21:53.444Z,18.40
2023-02-18T12:24:20.068Z,18.50
2023-02-18T12:26:46.731Z,18.50
2023-02-18T12:29:15.412Z,18.40
2023-02-18T12:31:42.105Z,18.10
2023-02-18T12:34:08.908Z,18.50
2023-02-18T12:36:35.587Z,18.30
2023-02-18T12:39:02.289Z,18.40
2023-02-18T12:41:29.025Z,18.50
2023-02-18T12:43:55.700Z,18.60
2023-02-18T12:46:22.340Z,18.90
2023-02-18T12:48:49.013Z,19.20
2023-02-18T12:51:15.684Z,19.60
2023-02-18T12:53:44.423Z,19.50
2023-02-18T12:56:11.305Z,19.10
2023-02-18T12:58:38.049Z,19.00
2023-02-18T13:01:04.772Z,18.50
2023-02-18T13:03:31.468Z,18.60
2023-02-18T13:05:58.168Z,18.30
2023-02-18T13:08:24.814Z,18.80
2023-02-18T13:10:51.456Z,18.70
2023-02-18T13:13:18.100Z,18.70
2023-02-18T13:15:44.750Z,18.40
2023-02-18T13:18:11.425Z,18.00
2023-02-18T13:20:38.095Z,18.30
2023-02-18T13:23:04.847Z,18.80
2023-02-18T13:25:31.507Z,19.20
2023-02-18T13:27:58.138Z,18.90
2023-02-18T13:30:25.002Z,18.60
2023-02-18T13:32:51.836Z,18.50
2023-02-18T13:35:18.513Z,18.70
2023-02-18T13:37:45.172Z,18.30
2023-02-18T13:40:11.859Z,18.30
2023-02-18T13:42:38.548Z,18.30
2023-02-18T13:45:05.146Z,18.70
2023-02-18T13:47:31.810Z,18.30
2023-02-18T13:49:58.479Z,18.40
2023-02-18T13:52:25.150Z,18.70
2023-02-18T13:54:52.185Z,18.90
2023-02-18T13:57:18.934Z,18.70
2023-02-18T13:59:45.606Z,18.70
2023-02-18T14:02:12.329Z,18.80
2023-02-18T14:04:39.523Z,19.10
2023-02-18T14:07:06.224Z,19.20
2023-02-18T14:09:32.846Z,18.70
2023-02-18T14:11:59.470Z,18.80
2023-02-18T14:14:26.143Z,18.60
2023-02-18T14:16:52.840Z,18.70
2023-02-18T14:19:19.477Z,18.90
2023-02-18T14:21:46.129Z,18.50
2023-02-18T14:24:12.762Z,18.60
2023-02-18T14:26:39.469Z,18.40
2023-02-18T14:29:06.182Z,17.90
2023-02-18T14:31:32.975Z,18.20
2023-02-18T14:33:59.641Z,17.90
2023-02-18T14:36:26.283Z,18.20
2023-02-18T14:38:52.975Z,18.40
2023-02-18T14:41:19.659Z,18.70
2023-02-18T14:43:46.306Z,18.90
2023-02-18T14:46:12.916Z,18.90
2023-02-18T14:48:39.560Z,18.80
2023-02-18T14:51:06.361Z,18.70
2023-02-18T14:53:33.069Z,18.30
2023-02-18T14:55:59.714Z,18.20
2023-02-18T14:58:26.393Z,17.70
2023-02-18T15:00:53.046Z,17.90
2023-02-18T15:03:19.725Z,17.50
2023-02-18T15:05:46.355Z,16.90
2023-02-18T15:08:13.046Z,16.60
2023-02-18T15:10:39.721Z,16.80
2023-02-18T15:13:06.355Z,17.00
2023-02-18T15:15:33.071Z,16.70
2023-02-18T15:17:59.715Z,16.40
2023-02-18T15:20:27.346Z,16.60
2023-02-18T15:22:54.109Z,16.90
2023-02-18T15:25:20.747Z,16.60
2023-02-18T15:27:47.431Z,16.70
2023-02-18T15:30:14.141Z,16.70
2023-02-18T15:32:40.765Z,16.60
2023-02-18T15:35:07.444Z,16.80
2023-02-18T15:37:34.113Z,16.80
2023-02-18T15:40:00.751Z,16.80
2023-02-18T15:42:27.476Z,16.80
2023-02-18T15:44:54.149Z,16.60
2023-02-18T15:47:20.850Z,16.50
2023-02-18T15:49:47.578Z,16.70
2023-02-18T15:52:14.188Z,16.50
2023-02-18T15:54:40.848Z,16.50
2023-02-18T15:57:07.490Z,16.50
2023-02-18T15:59:34.128Z,16.50
2023-02-18T16:02:00.853Z,16.50
2023-02-18T16:04:27.506Z,16.00
2023-02-18T16:06:54.148Z,15.90
2023-02-18T16:09:20.796Z,16.00
2023-02-18T16:11:47.485Z,15.60
2023-02-18T16:14:14.175Z,15.10
2023-02-18T16:16:40.941Z,15.20
2023-02-18T16:19:07.638Z,15.30
2023-02-18T16:21:34.230Z,15.00
2023-02-18T16:24:00.906Z,14.60
2023-02-18T16:26:27.590Z,14.60
2023-02-18T16:28:54.205Z,14.80
2023-02-18T16:31:20.984Z,14.60
2023-02-18T16:33:47.702Z,13.80
2023-02-18T16:36:14.337Z,13.80
2023-02-18T16:38:40.967Z,13.30
2023-02-18T16:41:07.658Z,13.50
2023-02-18T16:43:36.042Z,13.60
2023-02-18T16:46:02.729Z,13.50
2023-02-18T16:48:29.612Z,13.00
2023-02-18T16:50:57.215Z,13.20
2023-02-18T16:53:23.975Z,13.30
2023-02-18T16:55:50.641Z,13.20
2023-02-18T16:58:17.372Z,13.30
2023-02-18T17:00:44.057Z,12.50
2023-02-18T17:03:10.769Z,12.60
2023-02-18T17:05:37.492Z,12.10
2023-02-18T17:08:04.123Z,12.40
2023-02-18T17:10:30.756Z,12.40
2023-02-18T17:13:01.806Z,12.50
2023-02-18T17:15:28.416Z,11.90
2023-02-18T17:17:55.070Z,11.90
2023-02-18T17:20:21.693Z,11.90
2023-02-18T17:22:48.347Z,12.10
2023-02-18T17:25:15.020Z,12.00
2023-02-18T17:27:41.664Z,12.00
2023-02-18T17:30:08.301Z,12.20
2023-02-18T17:32:34.975Z,12.20
2023-02-18T17:35:01.644Z,11.90
2023-02-18T17:37:28.294Z,11.90
2023-02-18T17:39:55.009Z,11.60
2023-02-18T17:42:21.689Z,10.70
2023-02-18T17:44:48.320Z,10.40
2023-02-18T17:47:14.961Z,10.70
2023-02-18T17:49:41.625Z,9.90
2023-02-18T17:52:08.233Z,10.10
2023-02-18T17:54:34.860Z,10.00
2023-02-18T17:57:01.559Z,10.20
2023-02-18T17:59:28.202Z,10.60
2023-02-18T18:01:54.889Z,10.60
2023-02-18T18:04:21.644Z,10.40
2023-02-18T18:06:48.501Z,10.30
2023-02-18T18:09:15.104Z,10.60
2023-02-18T18:11:41.768Z,10.40
2023-02-18T18:14:08.463Z,9.40
2023-02-18T18:16:35.177Z,9.70
2023-02-18T18:19:01.894Z,9.90
2023-02-18T18:21:28.495Z,10.20
2023-02-18T18:23:55.144Z,10.30
2023-02-18T18:26:21.771Z,10.20
2023-02-18T18:28:48.443Z,10.00
2023-02-18T18:31:15.189Z,9.50
2023-02-18T18:33:41.907Z,9.70
2023-02-18T18:36:08.794Z,9.30
2023-02-18T18:38:35.694Z,9.40
2023-02-18T18:41:02.346Z,9.20
2023-02-18T18:43:31.501Z,9.20
2023-02-18T18:45:59.418Z,9.10
2023-02-18T18:48:26.038Z,8.90
2023-02-18T18:50:52.682Z,9.00
2023-02-18T18:53:19.356Z,9.20
2023-02-18T18:55:46.042Z,9.20
2023-02-18T18:58:12.657Z,8.80
2023-02-18T19:00:39.355Z,8.90
2023-02-18T19:03:05.996Z,8.90
2023-02-18T19:05:32.646Z,8.90
2023-02-18T19:07:59.296Z,8.70
2023-02-18T19:10:25.936Z,8.00
2023-02-18T19:12:52.576Z,8.10
2023-02-18T19:15:19.213Z,8.40
2023-02-18T19:17:45.848Z,8.70
2023-02-18T19:20:12.505Z,8.70
2023-02-18T19:22:39.173Z,8.60
2023-02-18T19:25:05.842Z,8.10
2023-02-18T19:27:32.480Z,8.10
2023-02-18T19:29:59.167Z,8.20
2023-02-18T19:32:25.822Z,8.10
2023-02-18T19:34:52.699Z,7.80
2023-02-18T19:37:19.308Z,7.80
2023-02-18T19:39:45.958Z,7.50
2023-02-18T19:42:12.611Z,7.20
2023-02-18T19:44:39.266Z,6.90
2023-02-18T19:47:05.950Z,7.10
2023-02-18T19:49:32.632Z,7.60
2023-02-18T19:51:59.274Z,7.50
2023-02-18T19:54:25.878Z,7.70
2023-02-18T19:56:52.523Z,7.70
2023-02-18T19:59:19.167Z,7.40
2023-02-18T20:01:45.903Z,7.50
2023-02-18T20:04:12.536Z,7.80
2023-02-18T20:06:39.152Z,7.80
2023-02-18T20:09:05.785Z,7.60
2023-02-18T20:11:32.448Z,7.80
2023-02-18T20:13:59.057Z,7.90
2023-02-18T20:16:25.709Z,8.30
2023-02-18T20:18:52.313Z,8.10
2023-02-18T20:21:18.985Z,8.00
2023-02-18T20:23:45.650Z,7.90
2023-02-18T20:26:12.299Z,7.90
2023-02-18T20:28:38.998Z,7.00
2023-02-18T20:31:05.724Z,7.40
2023-02-18T20:33:32.450Z,7.00
2023-02-18T20:36:00.913Z,6.80
2023-02-18T20:38:27.504Z,7.10
2023-02-18T20:40:54.169Z,6.90
2023-02-18T20:43:20.849Z,7.20
2023-02-18T20:45:47.560Z,7.40
2023-02-18T20:48:14.172Z,6.70
2023-02-18T20:50:40.828Z,6.70
2023-02-18T20:53:07.487Z,7.10
2023-02-18T20:55:34.179Z,7.40
2023-02-18T20:58:00.855Z,7.50
2023-02-18T21:00:27.500Z,7.30
2023-02-18T21:02:54.252Z,6.60
2023-02-18T21:05:20.918Z,6.80
2023-02-18T21:07:47.592Z,6.80
2023-02-18T21:10:14.252Z,7.20
2023-02-18T21:12:40.883Z,6.50
2023-02-18T21:15:07.544Z,6.90
2023-02-18T21:17:34.204Z,7.20
2023-02-18T21:20:00.896Z,6.50
2023-02-18T21:22:27.670Z,6.80
2023-02-18T21:24:54.289Z,6.60
2023-02-18T21:27:21.025Z,6.70
2023-02-18T21:29:47.644Z,7.10
2023-02-18T21:32:14.410Z,6.80
2023-02-18T21:34:41.090Z,6.80
2023-02-18T21:37:07.733Z,7.10
2023-02-18T21:39:34.414Z,7.30
2023-02-18T21:42:01.126Z,7.30
2023-02-18T21:44:41.195Z,7.60
2023-02-18T21:47:08.242Z,6.80
2023-02-18T21:49:34.913Z,7.10
2023-02-18T21:52:01.714Z,7.10
2023-02-18T21:54:28.358Z,6.70
2023-02-18T21:56:55.027Z,6.50
2023-02-18T21:59:21.697Z,6.60
2023-02-18T22:01:48.393Z,6.90
2023-02-18T22:04:15.008Z,7.20
2023-02-18T22:06:41.679Z,7.50
2023-02-18T22:09:08.354Z,7.40
2023-02-18T22:11:35.048Z,7.10
2023-02-18T22:14:01.736Z,6.90
2023-02-18T22:16:28.455Z,6.50
2023-02-18T22:18:55.074Z,6.60
2023-02-18T22:21:21.750Z,7.00
2023-02-18T22:23:48.376Z,7.00
2023-02-18T22:26:15.107Z,7.20
2023-02-18T22:28:41.714Z,6.90
2023-02-18T22:31:09.008Z,6.80
2023-02-18T22:33:35.973Z,7.00
2023-02-18T22:36:02.614Z,6.40
2023-02-18T22:38:29.368Z,6.20
2023-02-18T22:40:56.012Z,6.60
2023-02-18T22:43:22.633Z,7.00
2023-02-18T22:45:49.366Z,7.20
2023-02-18T22:48:17.374Z,6.60
2023-02-18T22:50:45.578Z,6.40
2023-02-18T22:53:12.201Z,6.40
2023-02-18T22:55:38.814Z,6.70
2023-02-18T22:58:05.441Z,6.80
2023-02-18T23:00:32.126Z,6.90
2023-02-18T23:02:58.736Z,6.10
2023-02-18T23:05:25.495Z,6.30
2023-02-18T23:07:52.151Z,6.70
2023-02-18T23:10:18.820Z,7.10
2023-02-18T23:12:45.456Z,7.20
2023-02-18T23:15:14.112Z,6.90
2023-02-18T23:17:40.840Z,6.10
2023-02-18T23:20:07.432Z,6.30
2023-02-18T23:22:34.139Z,6.50
2023-02-18T23:25:00.808Z,6.60
2023-02-18T23:27:27.462Z,6.80
2023-02-18T23:29:54.074Z,6.80
2023-02-18T23:32:20.681Z,6.70
2023-02-18T23:34:47.318Z,6.60
2023-02-18T23:37:13.924Z,6.70
2023-02-18T23:39:40.608Z,6.40
2023-02-18T23:42:07.271Z,6.10
2023-02-18T23:44:33.910Z,6.50
2023-02-18T23:47:00.570Z,6.80
2023-02-18T23:49:27.204Z,6.80
2023-02-18T23:51:53.886Z,6.40
2023-02-18T23:54:20.803Z,6.20
2023-02-18T23:56:47.506Z,6.40
2023-02-18T23:59:14.184Z,6.50
